Pocatello, Idaho
Current Conditions -  °F | °C
As of 10:53 PM on Friday 28 Nov 2014 (Local Time) from KPIH Reporting Station
Scattered Clouds Scattered Clouds  
Wind Chill: 44°   Ceiling: Unl
Heat Index: 48°   Visibility: 10mi
Dew Point: 20°   Wind: 9mph
Humidity: 33%   Direction: 200°SSW
Pressure: 29.71"   Gusts: NA
Location:  42.87°N, 112.45°W
Report Text: KPIH 290553Z AUTO 20008KT 10SM SCT100 SCT120 09/M07 A2971 RMK AO2 SLP035 T00891067 10139 20056 55003
Loading
Personal Weather Stations






























Interactive Weather Map New forecast layout! Learn more

10-Day Weather Forecast

Advertisements
Track Severe Weather on mobile